createdAt,value
2018-09-14T00:00:11.314Z,10.5
2018-09-14T00:09:11.919Z,10.4
2018-09-14T00:11:11.992Z,10.5
2018-09-14T00:12:12.096Z,10.4
2018-09-14T00:15:12.244Z,10.5
2018-09-14T00:23:12.734Z,10.6
2018-09-14T00:28:13.047Z,10.8
2018-09-14T00:44:14.047Z,10.9
2018-09-14T00:45:14.097Z,10.8
2018-09-14T00:55:14.755Z,10.9
2018-09-14T00:56:14.835Z,10.8
2018-09-14T01:00:15.060Z,10.9
2018-09-14T01:09:15.574Z,11
2018-09-14T01:17:16.151Z,11.1
2018-09-14T01:27:16.676Z,11.3
2018-09-14T01:50:18.139Z,11.4
2018-09-14T01:58:18.600Z,11.3
2018-09-14T01:59:18.655Z,11.4
2018-09-14T02:21:19.990Z,11.5
2018-09-14T02:54:22.055Z,11.4
2018-09-14T02:57:22.255Z,11.5
2018-09-14T02:58:22.296Z,11.4
2018-09-14T02:59:22.368Z,11.5
2018-09-14T03:29:24.182Z,11.4
2018-09-14T03:54:25.719Z,11.3
2018-09-14T04:16:27.077Z,11.4
2018-09-14T04:17:27.189Z,11.3
2018-09-14T04:18:27.251Z,11.4
2018-09-14T04:48:29.109Z,11.5
2018-09-14T04:50:29.172Z,11.4
2018-09-14T04:51:29.390Z,11.5
2018-09-14T05:04:30.078Z,11.6
2018-09-14T05:15:30.743Z,11.8
2018-09-14T05:36:32.000Z,11.9
2018-09-14T05:41:32.334Z,12
2018-09-14T05:45:32.652Z,12.1
2018-09-14T05:47:32.734Z,12.2
2018-09-14T05:49:32.839Z,12.4
2018-09-14T05:51:32.919Z,12.5
2018-09-14T05:52:33.031Z,12.6
2018-09-14T06:07:33.932Z,12.8
2018-09-14T06:10:34.094Z,12.9
2018-09-14T06:12:34.298Z,13
2018-09-14T06:14:34.404Z,13.1
2018-09-14T06:17:34.600Z,13
2018-09-14T06:23:34.888Z,13.1
2018-09-14T06:25:35.013Z,13.3
2018-09-14T06:27:35.138Z,13.4
2018-09-14T06:28:35.253Z,13.5
2018-09-14T06:29:35.262Z,13.6
2018-09-14T06:30:35.386Z,13.8
2018-09-14T06:32:35.475Z,13.9
2018-09-14T06:34:35.609Z,14
2018-09-14T06:35:35.662Z,14.1
2018-09-14T06:36:35.731Z,14.3
2018-09-14T06:37:35.877Z,14.4
2018-09-14T06:38:35.884Z,14.5
2018-09-14T06:41:36.059Z,14.6
2018-09-14T06:44:36.245Z,14.7
2018-09-14T06:45:36.287Z,14.9
2018-09-14T06:47:36.368Z,15
2018-09-14T06:49:36.534Z,15.1
2018-09-14T06:51:36.620Z,15.3
2018-09-14T06:53:36.754Z,15.4
2018-09-14T06:55:36.880Z,15.5
2018-09-14T06:58:37.051Z,15.6
2018-09-14T07:00:37.175Z,15.8
2018-09-14T07:01:37.303Z,15.9
2018-09-14T07:02:37.371Z,16
2018-09-14T07:04:37.487Z,16.1
2018-09-14T07:11:37.894Z,16.4
2018-09-14T07:12:37.907Z,16.6
2018-09-14T07:13:37.970Z,16.9
2018-09-14T07:18:38.338Z,17
2018-09-14T07:20:38.464Z,17.2
2018-09-14T07:21:38.520Z,17.5
2018-09-14T07:22:38.578Z,17.6
2018-09-14T07:23:38.643Z,17.8
2018-09-14T07:24:38.847Z,17.9
2018-09-14T07:25:38.759Z,18
2018-09-14T07:26:38.853Z,18.1
2018-09-14T07:29:38.982Z,18.3
2018-09-14T07:31:39.267Z,18.4
2018-09-14T07:32:39.204Z,18.3
2018-09-14T07:40:39.691Z,18.1
2018-09-14T07:41:39.694Z,17.9
2018-09-14T07:44:39.883Z,18
2018-09-14T07:45:39.992Z,18.1
2018-09-14T07:46:40.013Z,18.4
2018-09-14T07:48:40.132Z,18.3
2018-09-14T07:49:40.242Z,18.1
2018-09-14T07:51:40.323Z,18.3
2018-09-14T07:52:40.378Z,18.5
2018-09-14T07:53:40.511Z,18.6
2018-09-14T07:55:40.571Z,18.8
2018-09-14T07:57:40.679Z,18.9
2018-09-14T08:00:40.864Z,19
2018-09-14T08:02:41.029Z,19.1
2018-09-14T08:03:41.083Z,19.3
2018-09-14T08:06:41.269Z,19.1
2018-09-14T08:07:41.358Z,19
2018-09-14T08:08:41.379Z,19.1
2018-09-14T08:11:41.694Z,19
2018-09-14T08:12:41.655Z,18.9
2018-09-14T08:13:41.708Z,19
2018-09-14T08:14:41.775Z,19.3
2018-09-14T08:15:41.792Z,19.4
2018-09-14T08:16:41.892Z,19.6
2018-09-14T08:17:41.973Z,19.8
2018-09-14T08:18:42.018Z,19.9
2018-09-14T08:22:42.285Z,20
2018-09-14T08:23:42.342Z,20.4
2018-09-14T08:24:42.389Z,20.8
2018-09-14T08:25:42.411Z,21
2018-09-14T08:26:42.483Z,21.1
2018-09-14T08:27:42.548Z,21.2
2018-09-14T08:29:42.713Z,21.5
2018-09-14T08:30:42.776Z,21.8
2018-09-14T08:32:42.849Z,21.9
2018-09-14T08:33:42.899Z,22
2018-09-14T08:34:42.966Z,22.2
2018-09-14T08:35:43.023Z,22.5
2018-09-14T08:36:43.087Z,22.6
2018-09-14T08:37:43.146Z,22.5
2018-09-14T08:39:43.315Z,22.8
2018-09-14T08:40:43.385Z,23.1
2018-09-14T08:41:43.400Z,23
2018-09-14T08:43:43.583Z,23.5
2018-09-14T08:44:43.619Z,24.4
2018-09-14T08:45:43.650Z,24.5
2018-09-14T08:48:43.832Z,24.4
2018-09-14T08:49:43.892Z,24.1
2018-09-14T08:50:43.953Z,23.9
2018-09-14T08:51:44.020Z,23.5
2018-09-14T08:52:44.075Z,23.6
2018-09-14T08:53:44.212Z,24.3
2018-09-14T08:54:44.263Z,25.4
2018-09-14T08:55:44.314Z,26.4
2018-09-14T08:56:44.336Z,27.1
2018-09-14T08:57:44.422Z,27.8
2018-09-14T08:58:44.523Z,28.5
2018-09-14T08:59:44.576Z,28.9
2018-09-14T09:00:44.654Z,28.6
2018-09-14T09:01:44.784Z,28.5
2018-09-14T09:02:44.749Z,27.6
2018-09-14T09:03:44.883Z,26.6
2018-09-14T09:04:44.894Z,27
2018-09-14T09:05:44.919Z,28.1
2018-09-14T09:06:44.998Z,29.3
2018-09-14T09:07:45.076Z,30.1
2018-09-14T09:08:45.109Z,30.9
2018-09-14T09:09:45.191Z,31
2018-09-14T09:10:45.234Z,31.4
2018-09-14T09:11:45.285Z,32
2018-09-14T09:12:45.358Z,32.2
2018-09-14T09:13:45.429Z,30.9
2018-09-14T09:14:45.484Z,29.6
2018-09-14T09:15:45.561Z,28.7
2018-09-14T09:16:45.567Z,28.1
2018-09-14T09:17:45.704Z,27.4
2018-09-14T09:18:45.706Z,26.8
2018-09-14T09:19:45.755Z,26.2
2018-09-14T09:21:45.870Z,27.1
2018-09-14T09:22:45.975Z,28.9
2018-09-14T09:23:45.993Z,30.4
2018-09-14T09:24:46.056Z,31.5
2018-09-14T09:25:46.120Z,32.7
2018-09-14T09:26:46.226Z,33.9
2018-09-14T09:27:46.310Z,35
2018-09-14T09:28:46.356Z,35.9
2018-09-14T09:29:46.379Z,36.4
2018-09-14T09:30:46.490Z,36.9
2018-09-14T09:31:46.534Z,37.5
2018-09-14T09:32:46.799Z,37.9
2018-09-14T09:33:46.656Z,38.2
2018-09-14T09:34:46.683Z,38.4
2018-09-14T09:35:46.733Z,38.6
2018-09-14T09:36:46.804Z,38.9
2018-09-14T09:37:46.922Z,39.1
2018-09-14T09:38:46.915Z,39.4
2018-09-14T09:39:47.046Z,39.6
2018-09-14T09:40:47.045Z,39.7
2018-09-14T09:42:47.247Z,39.6
2018-09-14T09:44:47.339Z,39.7
2018-09-14T09:45:47.371Z,39.9
2018-09-14T09:47:47.557Z,40
2018-09-14T09:50:47.689Z,40.1
2018-09-14T09:51:47.722Z,40.2
2018-09-14T09:56:48.097Z,40.4
2018-09-14T09:58:48.190Z,40.5
2018-09-14T09:59:48.245Z,40.6
2018-09-14T10:00:48.311Z,40.8
2018-09-14T10:01:48.430Z,40.9
2018-09-14T10:02:48.404Z,41
2018-09-14T10:09:48.833Z,41.1
2018-09-14T10:10:48.893Z,41.2
2018-09-14T10:11:48.989Z,41.4
2018-09-14T10:12:49.013Z,41.5
2018-09-14T10:13:49.095Z,41.7
2018-09-14T10:15:49.251Z,41.9
2018-09-14T10:21:49.728Z,41.7
2018-09-14T10:23:49.695Z,41.6
2018-09-14T10:25:49.842Z,41.5
2018-09-14T10:28:50.074Z,41.6
2018-09-14T10:29:50.089Z,41.7
2018-09-14T10:30:50.137Z,41.9
2018-09-14T10:31:50.206Z,42
2018-09-14T10:32:50.306Z,42.2
2018-09-14T10:33:50.387Z,42.5
2018-09-14T10:34:50.418Z,42.7
2018-09-14T10:35:50.502Z,43
2018-09-14T10:36:50.536Z,43.3
2018-09-14T10:37:50.629Z,43.4
2018-09-14T10:38:50.651Z,43.5
2018-09-14T10:42:51.027Z,43.4
2018-09-14T10:47:51.268Z,43.6
2018-09-14T10:48:51.360Z,43.5
2018-09-14T10:49:51.361Z,42
2018-09-14T10:50:51.416Z,41.2
2018-09-14T10:51:51.435Z,41.1
2018-09-14T10:53:51.611Z,41.6
2018-09-14T10:54:51.658Z,42
2018-09-14T10:55:51.735Z,42.4
2018-09-14T10:56:51.748Z,42.7
2018-09-14T10:57:51.822Z,43.1
2018-09-14T10:58:51.866Z,43.4
2018-09-14T10:59:51.936Z,43.5
2018-09-14T11:00:52.060Z,43.6
2018-09-14T11:02:52.124Z,43.7
2018-09-14T11:03:52.206Z,43.9
2018-09-14T11:04:52.311Z,44.1
2018-09-14T11:06:52.426Z,43.4
2018-09-14T11:07:52.529Z,41.5
2018-09-14T11:08:52.535Z,39
2018-09-14T11:09:52.564Z,36.7
2018-09-14T11:10:52.611Z,35.1
2018-09-14T11:11:52.680Z,34.4
2018-09-14T11:12:52.808Z,35.9
2018-09-14T11:13:52.781Z,37
2018-09-14T11:14:52.861Z,37.9
2018-09-14T11:15:52.904Z,38.6
2018-09-14T11:16:52.981Z,39.2
2018-09-14T11:17:53.070Z,39.9
2018-09-14T11:18:53.140Z,40.4
2018-09-14T11:19:53.152Z,40.9
2018-09-14T11:20:53.271Z,41.1
2018-09-14T11:21:53.300Z,41.4
2018-09-14T11:22:53.413Z,41.7
2018-09-14T11:23:53.459Z,42.1
2018-09-14T11:24:53.603Z,42.4
2018-09-14T11:25:53.580Z,42.6
2018-09-14T11:26:53.639Z,42.9
2018-09-14T11:27:53.725Z,42.7
2018-09-14T11:28:53.762Z,42.9
2018-09-14T11:29:53.813Z,43
2018-09-14T11:30:53.888Z,42.7
2018-09-14T11:31:53.942Z,40.1
2018-09-14T11:32:54.060Z,38.6
2018-09-14T11:33:54.079Z,37.1
2018-09-14T11:34:54.125Z,37
2018-09-14T11:35:54.208Z,36
2018-09-14T11:36:54.258Z,34.6
2018-09-14T11:37:54.399Z,33.4
2018-09-14T11:38:54.371Z,32.2
2018-09-14T11:39:54.389Z,31.4
2018-09-14T11:40:54.508Z,30.5
2018-09-14T11:41:54.570Z,29.8
2018-09-14T11:42:54.602Z,29.4
2018-09-14T11:43:54.689Z,30.1
2018-09-14T11:44:54.774Z,29.5
2018-09-14T11:45:54.799Z,28.9
2018-09-14T11:46:55.353Z,29.4
2018-09-14T11:47:54.885Z,29
2018-09-14T11:48:55.014Z,28.3
2018-09-14T11:49:55.024Z,27.9
2018-09-14T11:50:55.107Z,28.4
2018-09-14T11:51:55.121Z,29.6
2018-09-14T11:52:55.232Z,31.1
2018-09-14T11:53:55.266Z,31
2018-09-14T11:54:55.380Z,30.3
2018-09-14T11:55:55.440Z,29.5
2018-09-14T11:56:55.474Z,28.9
2018-09-14T11:57:55.508Z,28.4
2018-09-14T11:58:55.579Z,27.9
2018-09-14T11:59:55.689Z,27.8
2018-09-14T12:01:55.766Z,28.1
2018-09-14T12:02:55.834Z,28
2018-09-14T12:03:55.883Z,27.9
2018-09-14T12:04:55.942Z,27.8
2018-09-14T12:06:56.077Z,28.9
2018-09-14T12:07:56.139Z,28.7
2018-09-14T12:08:56.187Z,29.8
2018-09-14T12:09:56.304Z,32.4
2018-09-14T12:10:56.296Z,34.2
2018-09-14T12:11:56.428Z,35.7
2018-09-14T12:12:56.488Z,35
2018-09-14T12:13:56.514Z,35.2
2018-09-14T12:14:56.852Z,34.1
2018-09-14T12:15:56.647Z,33.4
2018-09-14T12:16:56.736Z,32.7
2018-09-14T12:17:56.796Z,32.2
2018-09-14T12:18:56.853Z,32
2018-09-14T12:19:56.914Z,33.5
2018-09-14T12:20:56.992Z,34.5
2018-09-14T12:21:57.051Z,36.4
2018-09-14T12:22:57.079Z,37.6
2018-09-14T12:23:57.167Z,38.9
2018-09-14T12:24:57.211Z,39.5
2018-09-14T12:25:57.278Z,38.5
2018-09-14T12:26:57.327Z,36.9
2018-09-14T12:27:57.358Z,35.5
2018-09-14T12:28:57.416Z,34.4
2018-09-14T12:29:57.478Z,33.4
2018-09-14T12:30:57.603Z,32.6
2018-09-14T12:31:57.610Z,31.8
2018-09-14T12:32:57.673Z,31
2018-09-14T12:33:57.734Z,30.3
2018-09-14T12:34:57.790Z,29.6
2018-09-14T12:35:57.840Z,29.1
2018-09-14T12:36:58.272Z,28.7
2018-09-14T12:37:57.982Z,28.4
2018-09-14T12:38:58.037Z,28
2018-09-14T12:39:58.157Z,27.9
2018-09-14T12:40:58.157Z,28.3
2018-09-14T12:41:58.205Z,29.4
2018-09-14T12:42:58.328Z,30
2018-09-14T12:43:58.341Z,29.6
2018-09-14T12:44:58.445Z,29
2018-09-14T12:45:58.514Z,28.5
2018-09-14T12:46:58.580Z,28
2018-09-14T12:47:58.603Z,27.6
2018-09-14T12:48:58.711Z,27.4
2018-09-14T12:49:58.749Z,27.1
2018-09-14T12:50:58.764Z,26.9
2018-09-14T12:51:58.848Z,26.8
2018-09-14T12:53:59.019Z,26.9
2018-09-14T12:54:59.014Z,26.6
2018-09-14T12:55:59.073Z,26.5
2018-09-14T12:56:59.138Z,26.4
2018-09-14T12:58:59.303Z,26.8
2018-09-14T12:59:59.393Z,26.9
2018-09-14T13:00:59.445Z,27.4
2018-09-14T13:01:59.509Z,27.1
2018-09-14T13:02:59.562Z,26.9
2018-09-14T13:03:59.613Z,26.6
2018-09-14T13:04:59.665Z,26.2
2018-09-14T13:05:59.735Z,26
2018-09-14T13:06:59.800Z,26.6
2018-09-14T13:07:59.893Z,28.7
2018-09-14T13:08:59.882Z,30.9
2018-09-14T13:10:00.004Z,32.6
2018-09-14T13:11:00.072Z,34
2018-09-14T13:12:00.135Z,35.1
2018-09-14T13:13:00.200Z,36
2018-09-14T13:14:01.017Z,35.5
2018-09-14T13:15:01.656Z,33.7
2018-09-14T13:16:01.666Z,32.4
2018-09-14T13:17:01.406Z,32.6
2018-09-14T13:18:01.597Z,34.2
2018-09-14T13:19:00.939Z,35.5
2018-09-14T13:20:02.660Z,36.5
2018-09-14T13:21:00.953Z,37.2
2018-09-14T13:22:01.461Z,38
2018-09-14T13:23:02.513Z,38.6
2018-09-14T13:24:01.722Z,39
2018-09-14T13:25:01.834Z,38.2
2018-09-14T13:26:00.935Z,36.4
2018-09-14T13:27:01.547Z,35
2018-09-14T13:28:01.614Z,33.7
2018-09-14T13:29:02.100Z,32.9
2018-09-14T13:30:02.612Z,33.2
2018-09-14T13:31:02.474Z,34.9
2018-09-14T13:32:01.838Z,36.2
2018-09-14T13:33:01.388Z,37.2
2018-09-14T13:34:01.462Z,38.1
2018-09-14T13:35:01.496Z,39
2018-09-14T13:36:02.622Z,39.7
2018-09-14T13:37:02.490Z,40.2
2018-09-14T13:38:02.508Z,40.6
2018-09-14T13:39:02.613Z,41.2
2018-09-14T13:40:02.741Z,41.6
2018-09-14T13:41:02.766Z,41.9
2018-09-14T13:42:02.834Z,42.1
2018-09-14T13:43:02.882Z,42.2
2018-09-14T13:45:03.009Z,41.6
2018-09-14T13:47:03.063Z,39.7
2018-09-14T13:48:03.165Z,37.6
2018-09-14T13:49:03.257Z,36
2018-09-14T13:50:03.313Z,34.6
2018-09-14T13:51:03.358Z,34.1
2018-09-14T13:52:03.451Z,33.4
2018-09-14T13:53:03.478Z,32.4
2018-09-14T13:54:03.502Z,33.4
2018-09-14T13:55:03.566Z,34.9
2018-09-14T13:56:03.657Z,36.1
2018-09-14T13:57:03.720Z,37.1
2018-09-14T13:58:03.806Z,38.1
2018-09-14T13:59:03.799Z,38.9
2018-09-14T14:00:03.869Z,39.5
2018-09-14T14:01:03.930Z,40
2018-09-14T14:02:03.993Z,40.5
2018-09-14T14:03:04.052Z,41
2018-09-14T14:04:04.137Z,41.2
2018-09-14T14:05:04.201Z,41.5
2018-09-14T14:06:04.276Z,41.4
2018-09-14T14:07:04.382Z,40.1
2018-09-14T14:08:04.406Z,38
2018-09-14T14:09:04.480Z,37.1
2018-09-14T14:10:04.517Z,37.9
2018-09-14T14:11:04.576Z,38.6
2018-09-14T14:12:04.696Z,39.1
2018-09-14T14:13:04.717Z,39.6
2018-09-14T14:14:04.733Z,40
2018-09-14T14:15:04.797Z,40.1
2018-09-14T14:16:04.859Z,40
2018-09-14T14:18:04.987Z,39.7
2018-09-14T14:19:05.040Z,37.5
2018-09-14T14:20:05.181Z,37
2018-09-14T14:21:05.229Z,35
2018-09-14T14:22:05.239Z,35.4
2018-09-14T14:23:05.358Z,36.1
2018-09-14T14:24:05.416Z,36.7
2018-09-14T14:25:05.474Z,37.1
2018-09-14T14:26:05.537Z,37.5
2018-09-14T14:27:05.572Z,38
2018-09-14T14:28:05.665Z,38.2
2018-09-14T14:29:05.671Z,38.6
2018-09-14T14:30:05.759Z,38.9
2018-09-14T14:31:05.826Z,39.1
2018-09-14T14:32:05.923Z,39.2
2018-09-14T14:33:05.964Z,39.4
2018-09-14T14:34:06.007Z,39.6
2018-09-14T14:35:06.086Z,39.7
2018-09-14T14:36:06.092Z,39
2018-09-14T14:37:06.164Z,39.2
2018-09-14T14:42:06.514Z,39.1
2018-09-14T14:43:06.543Z,39
2018-09-14T14:46:06.709Z,38.9
2018-09-14T14:47:06.776Z,38.7
2018-09-14T14:48:06.835Z,38.6
2018-09-14T14:50:06.956Z,38.5
2018-09-14T14:55:07.265Z,38.2
2018-09-14T14:56:07.403Z,38.1
2018-09-14T14:57:07.405Z,38
2018-09-14T14:58:07.453Z,37.9
2018-09-14T15:00:07.611Z,37.7
2018-09-14T15:03:07.751Z,37.6
2018-09-14T15:05:07.888Z,37.5
2018-09-14T15:06:07.943Z,37.4
2018-09-14T15:08:08.121Z,37.2
2018-09-14T15:09:08.119Z,37.1
2018-09-14T15:10:08.193Z,37
2018-09-14T15:11:08.315Z,36.9
2018-09-14T15:12:08.303Z,36.7
2018-09-14T15:13:08.400Z,36.5
2018-09-14T15:15:08.636Z,36.4
2018-09-14T15:16:08.614Z,36.2
2018-09-14T15:19:08.848Z,36.1
2018-09-14T15:22:08.988Z,36
2018-09-14T15:24:09.116Z,35.9
2018-09-14T15:26:09.307Z,35.7
2018-09-14T15:28:09.357Z,35.6
2018-09-14T15:30:09.445Z,35.5
2018-09-14T15:32:09.557Z,35.4
2018-09-14T15:33:09.659Z,35.2
2018-09-14T15:35:09.729Z,35.1
2018-09-14T15:39:09.979Z,35
2018-09-14T15:41:10.112Z,34.9
2018-09-14T15:43:10.237Z,34.7
2018-09-14T15:44:10.337Z,34.6
2018-09-14T15:45:10.399Z,34.5
2018-09-14T15:46:10.438Z,34.2
2018-09-14T15:47:10.552Z,34.1
2018-09-14T15:48:10.549Z,34
2018-09-14T15:49:10.670Z,33.9
2018-09-14T15:51:10.727Z,33.6
2018-09-14T15:53:10.843Z,33.5
2018-09-14T15:54:10.909Z,33.4
2018-09-14T15:55:11.031Z,33.2
2018-09-14T15:56:11.047Z,33.1
2018-09-14T15:57:11.090Z,33
2018-09-14T15:59:11.273Z,32.9
2018-09-14T16:01:11.378Z,32.7
2018-09-14T16:03:11.575Z,32.6
2018-09-14T16:05:11.648Z,32.5
2018-09-14T16:06:11.691Z,32.4
2018-09-14T16:07:11.771Z,32.1
2018-09-14T16:08:11.867Z,32
2018-09-14T16:09:11.887Z,31.8
2018-09-14T16:10:11.894Z,31.6
2018-09-14T16:11:12.051Z,31.5
2018-09-14T16:12:12.041Z,31.4
2018-09-14T16:13:12.167Z,31.1
2018-09-14T16:14:12.174Z,31
2018-09-14T16:15:12.209Z,30.8
2018-09-14T16:16:12.263Z,30.6
2018-09-14T16:17:12.325Z,30.4
2018-09-14T16:18:12.429Z,30.1
2018-09-14T16:19:12.474Z,29.9
2018-09-14T16:20:12.842Z,29.6
2018-09-14T16:21:12.593Z,29.5
2018-09-14T16:22:12.685Z,29.3
2018-09-14T16:23:12.733Z,29.1
2018-09-14T16:24:12.788Z,29
2018-09-14T16:25:12.818Z,28.7
2018-09-14T16:27:12.962Z,28.6
2018-09-14T16:28:13.019Z,28.5
2018-09-14T16:29:13.064Z,28.3
2018-09-14T16:30:13.136Z,28.1
2018-09-14T16:31:13.189Z,28
2018-09-14T16:32:13.314Z,27.9
2018-09-14T16:33:13.384Z,27.8
2018-09-14T16:34:13.435Z,27.6
2018-09-14T16:35:13.543Z,27.5
2018-09-14T16:36:13.568Z,27.4
2018-09-14T16:37:13.681Z,27.2
2018-09-14T16:38:13.647Z,27.1
2018-09-14T16:39:13.694Z,27
2018-09-14T16:40:13.911Z,26.9
2018-09-14T16:41:13.807Z,26.6
2018-09-14T16:42:13.933Z,26.5
2018-09-14T16:44:13.995Z,26.2
2018-09-14T16:45:14.058Z,26.1
2018-09-14T16:46:14.130Z,25.9
2018-09-14T16:47:14.219Z,25.6
2018-09-14T16:48:14.246Z,25.4
2018-09-14T16:49:14.372Z,25.3
2018-09-14T16:50:14.422Z,25
2018-09-14T16:51:14.468Z,24.9
2018-09-14T16:52:14.568Z,24.6
2018-09-14T16:53:14.555Z,24.5
2018-09-14T16:54:14.641Z,24.3
2018-09-14T16:55:14.747Z,24
2018-09-14T16:56:14.802Z,23.7
2018-09-14T16:57:14.842Z,23.6
2018-09-14T16:58:14.904Z,23.4
2018-09-14T16:59:14.916Z,22.9
2018-09-14T17:00:14.979Z,22.2
2018-09-14T17:01:15.096Z,21.8
2018-09-14T17:02:15.161Z,21.4
2018-09-14T17:03:15.226Z,21
2018-09-14T17:04:15.263Z,20.6
2018-09-14T17:05:15.287Z,20.3
2018-09-14T17:06:15.400Z,19.9
2018-09-14T17:07:15.485Z,19.6
2018-09-14T17:08:15.540Z,19.4
2018-09-14T17:09:15.538Z,19.1
2018-09-14T17:10:15.607Z,18.9
2018-09-14T17:11:15.675Z,18.6
2018-09-14T17:12:15.734Z,18.5
2018-09-14T17:13:15.788Z,18.3
2018-09-14T17:14:15.842Z,18
2018-09-14T17:15:15.905Z,17.9
2018-09-14T17:16:15.973Z,17.8
2018-09-14T17:17:16.026Z,17.5
2018-09-14T17:18:16.092Z,17.4
2018-09-14T17:19:16.149Z,17.2
2018-09-14T17:20:16.214Z,17
2018-09-14T17:21:16.281Z,16.9
2018-09-14T17:22:16.332Z,16.8
2018-09-14T17:23:16.453Z,16.6
2018-09-14T17:24:16.474Z,16.5
2018-09-14T17:25:16.582Z,16.4
2018-09-14T17:26:17.109Z,16.3
2018-09-14T17:27:16.775Z,16.1
2018-09-14T17:28:16.718Z,16
2018-09-14T17:29:16.765Z,15.9
2018-09-14T17:30:16.852Z,15.8
2018-09-14T17:31:16.914Z,15.6
2018-09-14T17:32:16.951Z,15.5
2018-09-14T17:33:17.018Z,15.4
2018-09-14T17:34:17.096Z,15.3
2018-09-14T17:36:17.303Z,15.1
2018-09-14T17:37:17.320Z,15
2018-09-14T17:38:17.377Z,14.9
2018-09-14T17:40:17.520Z,14.7
2018-09-14T17:41:17.566Z,14.6
2018-09-14T17:42:17.613Z,14.5
2018-09-14T17:44:17.729Z,14.4
2018-09-14T17:46:17.944Z,14.3
2018-09-14T17:48:18.006Z,14.1
2018-09-14T17:50:18.100Z,14
2018-09-14T17:52:18.194Z,13.9
2018-09-14T17:54:18.328Z,13.8
2018-09-14T17:56:18.446Z,13.6
2018-09-14T17:58:18.589Z,13.5
2018-09-14T18:01:18.779Z,13.4
2018-09-14T18:04:18.930Z,13.3
2018-09-14T18:08:19.182Z,13.1
2018-09-14T18:12:19.428Z,13
2018-09-14T18:16:19.773Z,12.9
2018-09-14T18:19:19.851Z,12.8
2018-09-14T18:23:20.130Z,12.6
2018-09-14T18:27:20.381Z,12.5
2018-09-14T18:29:20.485Z,12.4
2018-09-14T18:32:20.692Z,12.2
2018-09-14T18:34:20.821Z,12.1
2018-09-14T18:37:21.007Z,12
2018-09-14T18:40:21.533Z,11.9
2018-09-14T18:43:21.719Z,11.8
2018-09-14T18:46:21.882Z,11.6
2018-09-14T18:49:22.426Z,11.5
2018-09-14T18:52:22.644Z,11.4
2018-09-14T18:57:22.952Z,11.3
2018-09-14T18:58:23.072Z,11.4
2018-09-14T18:59:23.042Z,11.3
2018-09-14T19:15:24.088Z,11.1
2018-09-14T19:20:24.370Z,11
2018-09-14T19:24:24.563Z,10.9
2018-09-14T19:27:24.759Z,10.8
2018-09-14T19:30:24.933Z,10.6
2018-09-14T19:32:25.051Z,10.5
2018-09-14T19:36:25.371Z,10.4
2018-09-14T19:40:25.599Z,10.3
2018-09-14T19:45:25.852Z,10.1
2018-09-14T19:52:26.320Z,10
2018-09-14T19:59:26.797Z,9.9
2018-09-14T20:23:28.217Z,9.8
2018-09-14T20:31:28.685Z,9.6
2018-09-14T20:32:28.757Z,9.8
2018-09-14T20:33:28.803Z,9.6
2018-09-14T20:34:28.895Z,9.8
2018-09-14T20:35:28.923Z,9.6
2018-09-14T20:47:29.728Z,9.8
2018-09-14T21:01:30.575Z,9.6
2018-09-14T21:11:31.157Z,9.5
2018-09-14T21:21:31.772Z,9.4
2018-09-14T21:27:32.228Z,9.3
2018-09-14T21:36:32.733Z,9.1
2018-09-14T22:04:34.465Z,9.3
2018-09-14T22:09:34.727Z,9.4
2018-09-14T22:17:35.209Z,9.5
2018-09-14T22:19:35.381Z,9.4
2018-09-14T22:20:35.407Z,9.5
2018-09-14T22:41:36.741Z,9.6
2018-09-14T22:42:36.775Z,9.5
2018-09-14T22:45:36.932Z,9.6
2018-09-14T22:49:37.274Z,9.5
2018-09-14T22:52:37.393Z,9.6
2018-09-14T22:53:37.433Z,9.5
2018-09-14T22:59:37.828Z,9.6
2018-09-14T23:09:38.408Z,9.8
2018-09-14T23:24:39.399Z,9.9
2018-09-14T23:28:39.574Z,10
2018-09-14T23:30:39.701Z,10.1
2018-09-14T23:31:39.755Z,10.3
2018-09-14T23:33:39.875Z,10.4
2018-09-14T23:34:39.940Z,10.5
2018-09-14T23:36:40.064Z,10.6
2018-09-14T23:37:40.148Z,10.8
2018-09-14T23:39:40.260Z,10.9
2018-09-14T23:41:40.376Z,11
2018-09-14T23:42:40.464Z,11.1
2018-09-14T23:44:40.560Z,11.3
2018-09-14T23:45:40.652Z,11.4
2018-09-14T23:47:40.766Z,11.6
2018-09-14T23:49:40.861Z,11.8
2018-09-14T23:50:40.926Z,11.9
2018-09-14T23:51:41.022Z,12
2018-09-14T23:53:41.170Z,12.1
2018-09-14T23:54:41.196Z,12.2
2018-09-14T23:56:41.354Z,12.4
2018-09-14T23:58:41.736Z,12.5
